sensor_id;sensor_type;location;lat;lon;timestamp;temperature;humidity
23395;DHT22;11870;53.084;18.206;2023-04-24T00:00:31;13.30;99.90
23395;DHT22;11870;53.084;18.206;2023-04-24T00:03:17;13.30;99.90
23395;DHT22;11870;53.084;18.206;2023-04-24T00:05:46;13.20;99.90
23395;DHT22;11870;53.084;18.206;2023-04-24T00:08:13;13.20;99.90
23395;DHT22;11870;53.084;18.206;2023-04-24T00:10:39;13.20;99.90
23395;DHT22;11870;53.084;18.206;2023-04-24T00:15:31;13.10;99.90
23395;DHT22;11870;53.084;18.206;2023-04-24T00:17:58;13.00;99.90
23395;DHT22;11870;53.084;18.206;2023-04-24T00:20:24;13.00;99.90
23395;DHT22;11870;53.084;18.206;2023-04-24T00:22:50;13.00;99.90
23395;DHT22;11870;53.084;18.206;2023-04-24T00:25:16;13.10;99.90
23395;DHT22;11870;53.084;18.206;2023-04-24T00:27:42;13.10;99.90
23395;DHT22;11870;53.084;18.206;2023-04-24T00:30:09;13.10;99.90
23395;DHT22;11870;53.084;18.206;2023-04-24T00:32:35;13.10;99.90
23395;DHT22;11870;53.084;18.206;2023-04-24T00:35:04;13.10;99.90
23395;DHT22;11870;53.084;18.206;2023-04-24T00:37:31;13.00;99.90
23395;DHT22;11870;53.084;18.206;2023-04-24T00:39:57;13.00;99.90
23395;DHT22;11870;53.084;18.206;2023-04-24T00:42:23;13.00;99.90
23395;DHT22;11870;53.084;18.206;2023-04-24T00:44:51;15.00;99.90
23395;DHT22;11870;53.084;18.206;2023-04-24T00:47:17;13.10;99.90
23395;DHT22;11870;53.084;18.206;2023-04-24T00:52:11;13.00;99.90
23395;DHT22;11870;53.084;18.206;2023-04-24T00:54:38;12.90;99.90
23395;DHT22;11870;53.084;18.206;2023-04-24T00:59:31;12.80;99.90
23395;DHT22;11870;53.084;18.206;2023-04-24T01:01:58;12.70;99.90
23395;DHT22;11870;53.084;18.206;2023-04-24T01:04:27;12.90;99.90
23395;DHT22;11870;53.084;18.206;2023-04-24T01:06:54;12.90;99.90
23395;DHT22;11870;53.084;18.206;2023-04-24T01:09:23;12.90;99.90
23395;DHT22;11870;53.084;18.206;2023-04-24T01:11:50;12.90;99.90
23395;DHT22;11870;53.084;18.206;2023-04-24T01:14:17;12.80;99.90
23395;DHT22;11870;53.084;18.206;2023-04-24T01:16:42;12.80;99.90
23395;DHT22;11870;53.084;18.206;2023-04-24T01:19:10;12.70;99.90
23395;DHT22;11870;53.084;18.206;2023-04-24T01:21:37;12.70;99.90
23395;DHT22;11870;53.084;18.206;2023-04-24T01:24:05;12.60;99.90
23395;DHT22;11870;53.084;18.206;2023-04-24T01:26:31;12.50;99.90
23395;DHT22;11870;53.084;18.206;2023-04-24T01:28:58;12.50;99.90
23395;DHT22;11870;53.084;18.206;2023-04-24T01:31:23;12.40;99.90
23395;DHT22;11870;53.084;18.206;2023-04-24T01:33:51;12.50;99.90
23395;DHT22;11870;53.084;18.206;2023-04-24T01:36:18;12.40;99.90
23395;DHT22;11870;53.084;18.206;2023-04-24T01:38:44;12.40;99.90
23395;DHT22;11870;53.084;18.206;2023-04-24T01:41:11;12.40;99.90
23395;DHT22;11870;53.084;18.206;2023-04-24T01:43:37;12.40;99.90
23395;DHT22;11870;53.084;18.206;2023-04-24T01:46:04;12.50;99.90
23395;DHT22;11870;53.084;18.206;2023-04-24T01:48:34;12.50;99.90
23395;DHT22;11870;53.084;18.206;2023-04-24T01:51:00;12.40;99.90
23395;DHT22;11870;53.084;18.206;2023-04-24T01:53:27;12.40;99.90
23395;DHT22;11870;53.084;18.206;2023-04-24T01:58:19;12.40;99.90
23395;DHT22;11870;53.084;18.206;2023-04-24T02:00:45;12.30;99.90
23395;DHT22;11870;53.084;18.206;2023-04-24T02:03:14;12.30;99.90
23395;DHT22;11870;53.084;18.206;2023-04-24T02:05:43;12.30;99.90
23395;DHT22;11870;53.084;18.206;2023-04-24T02:08:09;12.30;99.90
23395;DHT22;11870;53.084;18.206;2023-04-24T02:10:35;12.30;99.90
23395;DHT22;11870;53.084;18.206;2023-04-24T02:13:01;12.30;99.90
23395;DHT22;11870;53.084;18.206;2023-04-24T02:15:28;12.40;99.90
23395;DHT22;11870;53.084;18.206;2023-04-24T02:17:54;12.80;99.90
23395;DHT22;11870;53.084;18.206;2023-04-24T02:20:20;12.40;99.90
23395;DHT22;11870;53.084;18.206;2023-04-24T02:22:46;12.40;99.90
23395;DHT22;11870;53.084;18.206;2023-04-24T02:27:39;12.40;99.90
23395;DHT22;11870;53.084;18.206;2023-04-24T02:32:31;12.50;99.90
23395;DHT22;11870;53.084;18.206;2023-04-24T02:37:25;12.40;99.90
23395;DHT22;11870;53.084;18.206;2023-04-24T02:39:51;12.20;99.90
23395;DHT22;11870;53.084;18.206;2023-04-24T02:42:17;12.20;99.90
23395;DHT22;11870;53.084;18.206;2023-04-24T02:44:43;13.40;99.90
23395;DHT22;11870;53.084;18.206;2023-04-24T02:47:09;12.20;99.90
23395;DHT22;11870;53.084;18.206;2023-04-24T02:49:35;12.20;99.90
23395;DHT22;11870;53.084;18.206;2023-04-24T02:52:01;12.20;99.90
23395;DHT22;11870;53.084;18.206;2023-04-24T02:56:54;12.20;99.90
23395;DHT22;11870;53.084;18.206;2023-04-24T02:59:20;12.10;99.90
23395;DHT22;11870;53.084;18.206;2023-04-24T03:01:46;12.10;99.90
23395;DHT22;11870;53.084;18.206;2023-04-24T03:04:12;12.10;99.90
23395;DHT22;11870;53.084;18.206;2023-04-24T03:06:38;12.10;99.90
23395;DHT22;11870;53.084;18.206;2023-04-24T03:09:05;12.10;99.90
23395;DHT22;11870;53.084;18.206;2023-04-24T03:11:34;12.10;99.90
23395;DHT22;11870;53.084;18.206;2023-04-24T03:14:00;12.10;99.90
23395;DHT22;11870;53.084;18.206;2023-04-24T03:16:26;12.10;99.90
23395;DHT22;11870;53.084;18.206;2023-04-24T03:21:18;12.20;99.90
23395;DHT22;11870;53.084;18.206;2023-04-24T03:26:11;12.20;99.90
23395;DHT22;11870;53.084;18.206;2023-04-24T03:28:37;12.20;99.90
23395;DHT22;11870;53.084;18.206;2023-04-24T03:31:06;12.20;99.90
23395;DHT22;11870;53.084;18.206;2023-04-24T03:33:32;12.20;99.90
23395;DHT22;11870;53.084;18.206;2023-04-24T03:35:58;12.20;99.90
23395;DHT22;11870;53.084;18.206;2023-04-24T03:40:51;12.20;99.90
23395;DHT22;11870;53.084;18.206;2023-04-24T03:43:17;12.30;99.90
23395;DHT22;11870;53.084;18.206;2023-04-24T03:45:46;12.30;99.90
23395;DHT22;11870;53.084;18.206;2023-04-24T03:48:12;12.30;99.90
23395;DHT22;11870;53.084;18.206;2023-04-24T03:50:40;12.30;99.90
23395;DHT22;11870;53.084;18.206;2023-04-24T03:53:06;12.30;99.90
23395;DHT22;11870;53.084;18.206;2023-04-24T03:55:32;12.30;99.90
23395;DHT22;11870;53.084;18.206;2023-04-24T04:00:29;12.30;99.90
23395;DHT22;11870;53.084;18.206;2023-04-24T04:02:57;12.50;99.90
23395;DHT22;11870;53.084;18.206;2023-04-24T04:05:23;12.30;99.90
23395;DHT22;11870;53.084;18.206;2023-04-24T04:12:43;12.40;99.90
23395;DHT22;11870;53.084;18.206;2023-04-24T04:15:09;12.50;99.90
23395;DHT22;11870;53.084;18.206;2023-04-24T04:17:35;12.50;99.90
23395;DHT22;11870;53.084;18.206;2023-04-24T04:20:04;12.50;99.90
23395;DHT22;11870;53.084;18.206;2023-04-24T04:22:37;12.70;99.90
23395;DHT22;11870;53.084;18.206;2023-04-24T04:25:04;12.60;99.90
23395;DHT22;11870;53.084;18.206;2023-04-24T04:27:30;12.70;99.90
23395;DHT22;11870;53.084;18.206;2023-04-24T04:29:58;12.80;99.90
23395;DHT22;11870;53.084;18.206;2023-04-24T04:32:28;12.90;99.90
23395;DHT22;11870;53.084;18.206;2023-04-24T04:34:55;12.90;99.90
23395;DHT22;11870;53.084;18.206;2023-04-24T04:37:21;12.90;99.90
23395;DHT22;11870;53.084;18.206;2023-04-24T04:39:47;13.10;99.90
23395;DHT22;11870;53.084;18.206;2023-04-24T04:42:13;13.10;99.90
23395;DHT22;11870;53.084;18.206;2023-04-24T04:44:39;13.10;99.90
23395;DHT22;11870;53.084;18.206;2023-04-24T04:49:33;13.70;99.90
23395;DHT22;11870;53.084;18.206;2023-04-24T04:52:00;13.30;99.90
23395;DHT22;11870;53.084;18.206;2023-04-24T04:54:26;13.30;99.90
23395;DHT22;11870;53.084;18.206;2023-04-24T05:01:49;13.50;99.90
23395;DHT22;11870;53.084;18.206;2023-04-24T05:06:42;13.70;99.90
23395;DHT22;11870;53.084;18.206;2023-04-24T05:09:11;13.80;99.90
23395;DHT22;11870;53.084;18.206;2023-04-24T05:11:45;14.00;99.90
23395;DHT22;11870;53.084;18.206;2023-04-24T05:14:12;14.10;99.90
23395;DHT22;11870;53.084;18.206;2023-04-24T05:19:07;15.00;99.90
23395;DHT22;11870;53.084;18.206;2023-04-24T05:21:37;15.40;99.90
23395;DHT22;11870;53.084;18.206;2023-04-24T05:24:05;15.50;99.90
23395;DHT22;11870;53.084;18.206;2023-04-24T05:26:31;15.50;99.90
23395;DHT22;11870;53.084;18.206;2023-04-24T05:29:00;15.60;99.90
23395;DHT22;11870;53.084;18.206;2023-04-24T05:33:52;15.70;99.90
23395;DHT22;11870;53.084;18.206;2023-04-24T05:36:18;15.70;99.90
23395;DHT22;11870;53.084;18.206;2023-04-24T05:38:44;15.70;99.90
23395;DHT22;11870;53.084;18.206;2023-04-24T05:41:10;17.90;99.90
23395;DHT22;11870;53.084;18.206;2023-04-24T05:43:36;17.40;99.90
23395;DHT22;11870;53.084;18.206;2023-04-24T05:46:02;17.10;99.90
23395;DHT22;11870;53.084;18.206;2023-04-24T05:48:28;16.10;99.90
23395;DHT22;11870;53.084;18.206;2023-04-24T05:50:54;15.90;99.90
23395;DHT22;11870;53.084;18.206;2023-04-24T05:53:20;16.00;99.90
23395;DHT22;11870;53.084;18.206;2023-04-24T05:55:47;16.00;99.90
23395;DHT22;11870;53.084;18.206;2023-04-24T05:58:13;16.10;99.90
23395;DHT22;11870;53.084;18.206;2023-04-24T06:00:40;16.30;99.90
23395;DHT22;11870;53.084;18.206;2023-04-24T06:03:08;16.60;99.90
23395;DHT22;11870;53.084;18.206;2023-04-24T06:05:34;17.00;99.90
23395;DHT22;11870;53.084;18.206;2023-04-24T06:08:01;17.50;99.90
23395;DHT22;11870;53.084;18.206;2023-04-24T06:10:27;18.30;99.90
23395;DHT22;11870;53.084;18.206;2023-04-24T06:12:53;20.90;99.90
23395;DHT22;11870;53.084;18.206;2023-04-24T06:15:21;19.90;99.90
23395;DHT22;11870;53.084;18.206;2023-04-24T06:17:48;21.60;99.90
23395;DHT22;11870;53.084;18.206;2023-04-24T06:20:13;20.90;99.90
23395;DHT22;11870;53.084;18.206;2023-04-24T06:22:40;21.60;99.90
23395;DHT22;11870;53.084;18.206;2023-04-24T06:25:06;20.80;99.90
23395;DHT22;11870;53.084;18.206;2023-04-24T06:27:36;20.60;99.90
23395;DHT22;11870;53.084;18.206;2023-04-24T06:30:02;20.30;99.90
23395;DHT22;11870;53.084;18.206;2023-04-24T06:32:29;19.90;99.90
23395;DHT22;11870;53.084;18.206;2023-04-24T06:34:56;19.70;99.90
23395;DHT22;11870;53.084;18.206;2023-04-24T06:37:22;19.60;99.90
23395;DHT22;11870;53.084;18.206;2023-04-24T06:39:48;19.60;99.90
23395;DHT22;11870;53.084;18.206;2023-04-24T06:42:14;19.50;99.90
23395;DHT22;11870;53.084;18.206;2023-04-24T06:44:40;20.40;99.90
23395;DHT22;11870;53.084;18.206;2023-04-24T06:47:07;19.40;99.90
23395;DHT22;11870;53.084;18.206;2023-04-24T06:49:39;19.40;99.90
23395;DHT22;11870;53.084;18.206;2023-04-24T06:52:06;19.20;99.90
23395;DHT22;11870;53.084;18.206;2023-04-24T06:56:59;19.00;99.90
23395;DHT22;11870;53.084;18.206;2023-04-24T06:59:26;18.90;99.90
23395;DHT22;11870;53.084;18.206;2023-04-24T07:01:54;18.80;99.90
23395;DHT22;11870;53.084;18.206;2023-04-24T07:04:20;18.80;99.90
23395;DHT22;11870;53.084;18.206;2023-04-24T07:06:48;20.00;99.90
23395;DHT22;11870;53.084;18.206;2023-04-24T07:09:15;18.60;99.90
23395;DHT22;11870;53.084;18.206;2023-04-24T07:11:45;18.50;99.90
23395;DHT22;11870;53.084;18.206;2023-04-24T07:14:11;19.40;99.90
23395;DHT22;11870;53.084;18.206;2023-04-24T07:16:38;19.40;99.90
23395;DHT22;11870;53.084;18.206;2023-04-24T07:19:04;18.30;99.90
23395;DHT22;11870;53.084;18.206;2023-04-24T07:21:30;18.80;99.90
23395;DHT22;11870;53.084;18.206;2023-04-24T07:23:58;18.40;99.90
23395;DHT22;11870;53.084;18.206;2023-04-24T07:26:25;18.60;99.90
23395;DHT22;11870;53.084;18.206;2023-04-24T07:28:51;18.80;99.90
23395;DHT22;11870;53.084;18.206;2023-04-24T07:31:23;20.80;99.90
23395;DHT22;11870;53.084;18.206;2023-04-24T07:33:49;18.90;99.90
23395;DHT22;11870;53.084;18.206;2023-04-24T07:36:16;18.90;99.90
23395;DHT22;11870;53.084;18.206;2023-04-24T07:38:47;18.90;99.90
23395;DHT22;11870;53.084;18.206;2023-04-24T07:41:14;18.90;99.90
23395;DHT22;11870;53.084;18.206;2023-04-24T07:43:40;18.90;99.90
23395;DHT22;11870;53.084;18.206;2023-04-24T07:46:07;18.80;99.90
23395;DHT22;11870;53.084;18.206;2023-04-24T07:48:34;18.80;99.90
23395;DHT22;11870;53.084;18.206;2023-04-24T07:51:00;18.80;99.90
23395;DHT22;11870;53.084;18.206;2023-04-24T07:53:26;18.80;99.90
23395;DHT22;11870;53.084;18.206;2023-04-24T07:55:52;18.70;99.90
23395;DHT22;11870;53.084;18.206;2023-04-24T07:58:19;18.60;99.90
23395;DHT22;11870;53.084;18.206;2023-04-24T08:00:46;18.60;99.90
23395;DHT22;11870;53.084;18.206;2023-04-24T08:03:12;18.50;99.90
23395;DHT22;11870;53.084;18.206;2023-04-24T08:08:04;18.70;99.90
23395;DHT22;11870;53.084;18.206;2023-04-24T08:10:31;19.50;99.90
23395;DHT22;11870;53.084;18.206;2023-04-24T08:12:59;20.20;99.90
23395;DHT22;11870;53.084;18.206;2023-04-24T08:15:26;18.60;99.90
23395;DHT22;11870;53.084;18.206;2023-04-24T08:17:52;18.50;99.90
23395;DHT22;11870;53.084;18.206;2023-04-24T08:20:19;18.50;99.90
23395;DHT22;11870;53.084;18.206;2023-04-24T08:22:45;18.70;99.90
23395;DHT22;11870;53.084;18.206;2023-04-24T08:25:13;18.70;99.90
23395;DHT22;11870;53.084;18.206;2023-04-24T08:27:39;18.90;99.90
23395;DHT22;11870;53.084;18.206;2023-04-24T08:30:06;20.00;99.90
23395;DHT22;11870;53.084;18.206;2023-04-24T08:32:32;19.20;99.90
23395;DHT22;11870;53.084;18.206;2023-04-24T08:34:59;19.30;99.90
23395;DHT22;11870;53.084;18.206;2023-04-24T08:37:27;21.00;99.90
23395;DHT22;11870;53.084;18.206;2023-04-24T08:39:53;19.60;99.90
23395;DHT22;11870;53.084;18.206;2023-04-24T08:42:20;19.80;99.90
23395;DHT22;11870;53.084;18.206;2023-04-24T08:44:48;21.10;99.90
23395;DHT22;11870;53.084;18.206;2023-04-24T08:47:15;20.20;99.90
23395;DHT22;11870;53.084;18.206;2023-04-24T08:49:44;20.60;99.90
23395;DHT22;11870;53.084;18.206;2023-04-24T08:52:13;21.30;97.60
23395;DHT22;11870;53.084;18.206;2023-04-24T08:54:40;20.80;95.60
23395;DHT22;11870;53.084;18.206;2023-04-24T08:57:11;21.60;95.30
23395;DHT22;11870;53.084;18.206;2023-04-24T08:59:40;20.80;94.20
23395;DHT22;11870;53.084;18.206;2023-04-24T09:02:10;20.50;93.90
23395;DHT22;11870;53.084;18.206;2023-04-24T09:04:38;21.60;95.80
23395;DHT22;11870;53.084;18.206;2023-04-24T09:07:06;20.20;95.90
23395;DHT22;11870;53.084;18.206;2023-04-24T09:09:33;20.10;96.60
23395;DHT22;11870;53.084;18.206;2023-04-24T09:12:00;20.00;98.20
23395;DHT22;11870;53.084;18.206;2023-04-24T09:14:26;19.90;98.70
23395;DHT22;11870;53.084;18.206;2023-04-24T09:16:53;19.80;99.90
23395;DHT22;11870;53.084;18.206;2023-04-24T09:19:22;19.90;99.90
23395;DHT22;11870;53.084;18.206;2023-04-24T09:21:48;19.90;99.90
23395;DHT22;11870;53.084;18.206;2023-04-24T09:24:17;19.80;99.90
23395;DHT22;11870;53.084;18.206;2023-04-24T09:26:44;19.70;99.90
23395;DHT22;11870;53.084;18.206;2023-04-24T09:29:15;19.60;99.90
23395;DHT22;11870;53.084;18.206;2023-04-24T09:31:45;19.50;99.90
23395;DHT22;11870;53.084;18.206;2023-04-24T09:34:11;19.40;99.90
23395;DHT22;11870;53.084;18.206;2023-04-24T09:36:39;19.40;99.90
23395;DHT22;11870;53.084;18.206;2023-04-24T09:39:14;19.40;99.90
23395;DHT22;11870;53.084;18.206;2023-04-24T09:44:21;19.80;99.90
23395;DHT22;11870;53.084;18.206;2023-04-24T09:46:53;19.90;99.90
23395;DHT22;11870;53.084;18.206;2023-04-24T09:49:24;20.00;99.90
23395;DHT22;11870;53.084;18.206;2023-04-24T09:51:51;20.20;99.90
23395;DHT22;11870;53.084;18.206;2023-04-24T09:54:19;20.30;99.90
23395;DHT22;11870;53.084;18.206;2023-04-24T09:56:50;20.20;99.70
23395;DHT22;11870;53.084;18.206;2023-04-24T09:59:18;20.40;99.00
23395;DHT22;11870;53.084;18.206;2023-04-24T10:01:45;20.60;95.40
23395;DHT22;11870;53.084;18.206;2023-04-24T10:04:22;20.80;91.80
23395;DHT22;11870;53.084;18.206;2023-04-24T10:06:51;21.40;90.80
23395;DHT22;11870;53.084;18.206;2023-04-24T10:09:23;22.20;84.40
23395;DHT22;11870;53.084;18.206;2023-04-24T10:11:51;23.20;70.70
23395;DHT22;11870;53.084;18.206;2023-04-24T10:14:22;24.10;68.00
23395;DHT22;11870;53.084;18.206;2023-04-24T10:16:49;23.70;64.80
23395;DHT22;11870;53.084;18.206;2023-04-24T10:19:17;23.60;64.00
23395;DHT22;11870;53.084;18.206;2023-04-24T10:21:44;23.60;61.30
23395;DHT22;11870;53.084;18.206;2023-04-24T10:24:17;23.50;62.20
23395;DHT22;11870;53.084;18.206;2023-04-24T10:26:45;23.30;62.30
23395;DHT22;11870;53.084;18.206;2023-04-24T10:29:17;23.20;64.80
23395;DHT22;11870;53.084;18.206;2023-04-24T10:31:43;23.00;63.20
23395;DHT22;11870;53.084;18.206;2023-04-24T10:34:13;23.10;63.10
23395;DHT22;11870;53.084;18.206;2023-04-24T10:36:43;23.00;63.30
23395;DHT22;11870;53.084;18.206;2023-04-24T10:39:15;22.90;64.50
23395;DHT22;11870;53.084;18.206;2023-04-24T10:41:42;23.00;64.40
23395;DHT22;11870;53.084;18.206;2023-04-24T10:44:09;23.10;63.50
23395;DHT22;11870;53.084;18.206;2023-04-24T10:46:36;23.20;62.90
23395;DHT22;11870;53.084;18.206;2023-04-24T10:49:06;23.10;62.60
23395;DHT22;11870;53.084;18.206;2023-04-24T10:51:53;23.10;63.50
23395;DHT22;11870;53.084;18.206;2023-04-24T10:54:29;22.90;62.30
23395;DHT22;11870;53.084;18.206;2023-04-24T10:59:51;22.90;65.70
23395;DHT22;11870;53.084;18.206;2023-04-24T11:02:17;22.90;63.10
23395;DHT22;11870;53.084;18.206;2023-04-24T11:04:44;22.90;61.10
23395;DHT22;11870;53.084;18.206;2023-04-24T11:07:20;22.70;61.40
23395;DHT22;11870;53.084;18.206;2023-04-24T11:10:00;22.60;61.30
23395;DHT22;11870;53.084;18.206;2023-04-24T11:12:29;22.30;61.00
23395;DHT22;11870;53.084;18.206;2023-04-24T11:17:33;22.70;62.20
23395;DHT22;11870;53.084;18.206;2023-04-24T11:20:10;22.10;62.20
23395;DHT22;11870;53.084;18.206;2023-04-24T11:22:38;22.00;63.00
23395;DHT22;11870;53.084;18.206;2023-04-24T11:25:09;21.90;63.00
23395;DHT22;11870;53.084;18.206;2023-04-24T11:27:44;22.00;63.50
23395;DHT22;11870;53.084;18.206;2023-04-24T11:30:17;21.90;64.20
23395;DHT22;11870;53.084;18.206;2023-04-24T11:32:47;22.10;63.90
23395;DHT22;11870;53.084;18.206;2023-04-24T11:35:20;22.40;63.80
23395;DHT22;11870;53.084;18.206;2023-04-24T11:37:52;22.80;64.10
23395;DHT22;11870;53.084;18.206;2023-04-24T11:40:22;22.50;63.20
23395;DHT22;11870;53.084;18.206;2023-04-24T11:42:50;22.80;63.10
23395;DHT22;11870;53.084;18.206;2023-04-24T11:45:21;22.80;61.60
23395;DHT22;11870;53.084;18.206;2023-04-24T11:47:48;23.00;60.80
23395;DHT22;11870;53.084;18.206;2023-04-24T11:50:17;22.90;60.80
23395;DHT22;11870;53.084;18.206;2023-04-24T11:52:45;23.00;60.90
23395;DHT22;11870;53.084;18.206;2023-04-24T11:57:50;23.10;60.60
23395;DHT22;11870;53.084;18.206;2023-04-24T12:00:23;22.80;61.30
23395;DHT22;11870;53.084;18.206;2023-04-24T12:02:49;22.70;62.30
23395;DHT22;11870;53.084;18.206;2023-04-24T12:05:20;22.60;62.50
23395;DHT22;11870;53.084;18.206;2023-04-24T12:07:46;22.60;62.60
23395;DHT22;11870;53.084;18.206;2023-04-24T12:10:13;22.60;63.70
23395;DHT22;11870;53.084;18.206;2023-04-24T12:12:40;22.60;64.20
23395;DHT22;11870;53.084;18.206;2023-04-24T12:15:07;23.00;63.30
23395;DHT22;11870;53.084;18.206;2023-04-24T12:17:34;22.50;63.90
23395;DHT22;11870;53.084;18.206;2023-04-24T12:20:04;23.40;64.10
23395;DHT22;11870;53.084;18.206;2023-04-24T12:25:14;22.40;62.30
23395;DHT22;11870;53.084;18.206;2023-04-24T12:27:46;22.50;61.30
23395;DHT22;11870;53.084;18.206;2023-04-24T12:30:16;22.50;61.40
23395;DHT22;11870;53.084;18.206;2023-04-24T12:32:47;22.50;60.00
23395;DHT22;11870;53.084;18.206;2023-04-24T12:35:19;22.60;61.50
23395;DHT22;11870;53.084;18.206;2023-04-24T12:37:46;22.80;61.10
23395;DHT22;11870;53.084;18.206;2023-04-24T12:40:12;22.90;60.10
23395;DHT22;11870;53.084;18.206;2023-04-24T12:42:50;23.10;58.50
23395;DHT22;11870;53.084;18.206;2023-04-24T12:45:34;23.50;57.50
23395;DHT22;11870;53.084;18.206;2023-04-24T12:48:05;23.40;55.60
23395;DHT22;11870;53.084;18.206;2023-04-24T12:50:40;23.40;55.60
23395;DHT22;11870;53.084;18.206;2023-04-24T12:53:08;23.30;53.80
23395;DHT22;11870;53.084;18.206;2023-04-24T12:55:34;23.20;54.40
23395;DHT22;11870;53.084;18.206;2023-04-24T12:58:01;23.20;52.10
23395;DHT22;11870;53.084;18.206;2023-04-24T13:00:33;23.10;52.40
23395;DHT22;11870;53.084;18.206;2023-04-24T13:03:00;23.00;51.40
23395;DHT22;11870;53.084;18.206;2023-04-24T13:05:27;22.80;52.30
23395;DHT22;11870;53.084;18.206;2023-04-24T13:07:53;22.70;52.60
23395;DHT22;11870;53.084;18.206;2023-04-24T13:10:19;24.10;54.20
23395;DHT22;11870;53.084;18.206;2023-04-24T13:12:45;22.30;53.80
23395;DHT22;11870;53.084;18.206;2023-04-24T13:15:12;23.10;56.30
23395;DHT22;11870;53.084;18.206;2023-04-24T13:17:38;21.80;56.50
23395;DHT22;11870;53.084;18.206;2023-04-24T13:20:04;22.90;57.60
23395;DHT22;11870;53.084;18.206;2023-04-24T13:24:56;21.00;55.60
23395;DHT22;11870;53.084;18.206;2023-04-24T13:27:26;20.60;56.90
23395;DHT22;11870;53.084;18.206;2023-04-24T13:29:52;20.50;59.00
23395;DHT22;11870;53.084;18.206;2023-04-24T13:32:18;20.30;59.10
23395;DHT22;11870;53.084;18.206;2023-04-24T13:37:11;20.30;61.50
23395;DHT22;11870;53.084;18.206;2023-04-24T13:42:03;20.40;62.70
23395;DHT22;11870;53.084;18.206;2023-04-24T13:44:29;20.40;64.90
23395;DHT22;11870;53.084;18.206;2023-04-24T13:46:57;22.50;67.40
23395;DHT22;11870;53.084;18.206;2023-04-24T13:49:24;21.30;67.60
23395;DHT22;11870;53.084;18.206;2023-04-24T13:51:52;20.40;67.10
23395;DHT22;11870;53.084;18.206;2023-04-24T13:56:44;20.60;69.80
23395;DHT22;11870;53.084;18.206;2023-04-24T13:59:12;22.50;73.10
23395;DHT22;11870;53.084;18.206;2023-04-24T14:06:31;20.70;72.80
23395;DHT22;11870;53.084;18.206;2023-04-24T14:09:03;20.80;74.60
23395;DHT22;11870;53.084;18.206;2023-04-24T14:16:23;20.90;75.80
23395;DHT22;11870;53.084;18.206;2023-04-24T14:18:51;21.10;75.10
23395;DHT22;11870;53.084;18.206;2023-04-24T14:26:11;21.10;69.00
23395;DHT22;11870;53.084;18.206;2023-04-24T14:31:04;21.20;69.90
23395;DHT22;11870;53.084;18.206;2023-04-24T14:38:23;21.30;68.10
23395;DHT22;11870;53.084;18.206;2023-04-24T14:48:08;21.30;68.50
23395;DHT22;11870;53.084;18.206;2023-04-24T14:53:01;21.40;67.10
23395;DHT22;11870;53.084;18.206;2023-04-24T14:55:28;21.60;66.20
23395;DHT22;11870;53.084;18.206;2023-04-24T14:57:54;21.60;66.00
23395;DHT22;11870;53.084;18.206;2023-04-24T15:00:21;21.40;66.90
23395;DHT22;11870;53.084;18.206;2023-04-24T15:02:49;21.50;67.60
23395;DHT22;11870;53.084;18.206;2023-04-24T15:12:35;21.00;70.90
23395;DHT22;11870;53.084;18.206;2023-04-24T15:17:28;21.10;71.10
23395;DHT22;11870;53.084;18.206;2023-04-24T15:22:24;21.30;71.40
23395;DHT22;11870;53.084;18.206;2023-04-24T15:24:50;21.20;71.80
23395;DHT22;11870;53.084;18.206;2023-04-24T15:29:53;21.40;71.90
23395;DHT22;11870;53.084;18.206;2023-04-24T15:39:39;21.10;73.70
23395;DHT22;11870;53.084;18.206;2023-04-24T15:42:05;20.80;74.20
23395;DHT22;11870;53.084;18.206;2023-04-24T15:44:33;20.80;75.30
23395;DHT22;11870;53.084;18.206;2023-04-24T15:47:00;20.60;76.40
23395;DHT22;11870;53.084;18.206;2023-04-24T16:01:39;19.90;77.20
23395;DHT22;11870;53.084;18.206;2023-04-24T16:09:01;19.40;76.70
23395;DHT22;11870;53.084;18.206;2023-04-24T16:13:57;19.20;78.90
23395;DHT22;11870;53.084;18.206;2023-04-24T16:16:23;19.00;80.20
23395;DHT22;11870;53.084;18.206;2023-04-24T16:21:19;18.80;85.00
23395;DHT22;11870;53.084;18.206;2023-04-24T16:23:45;18.80;85.00
23395;DHT22;11870;53.084;18.206;2023-04-24T16:31:05;18.70;90.10
23395;DHT22;11870;53.084;18.206;2023-04-24T16:33:31;18.70;90.40
23395;DHT22;11870;53.084;18.206;2023-04-24T16:35:57;18.80;89.90
23395;DHT22;11870;53.084;18.206;2023-04-24T16:41:16;18.90;89.00
23395;DHT22;11870;53.084;18.206;2023-04-24T16:43:54;18.90;85.60
23395;DHT22;11870;53.084;18.206;2023-04-24T17:16:06;16.00;99.90
23395;DHT22;11870;53.084;18.206;2023-04-24T17:18:41;15.80;99.90
23395;DHT22;11870;53.084;18.206;2023-04-24T17:23:33;15.50;99.90
23395;DHT22;11870;53.084;18.206;2023-04-24T17:28:30;15.20;99.90
23395;DHT22;11870;53.084;18.206;2023-04-24T17:33:27;15.00;99.90
23395;DHT22;11870;53.084;18.206;2023-04-24T17:35:54;14.90;99.90
23395;DHT22;11870;53.084;18.206;2023-04-24T17:38:24;14.70;99.90
23395;DHT22;11870;53.084;18.206;2023-04-24T17:43:20;14.60;99.90
23395;DHT22;11870;53.084;18.206;2023-04-24T17:45:47;14.50;99.90
23395;DHT22;11870;53.084;18.206;2023-04-24T17:48:14;14.40;99.90
23395;DHT22;11870;53.084;18.206;2023-04-24T17:53:07;14.20;99.90
23395;DHT22;11870;53.084;18.206;2023-04-24T17:55:34;14.10;99.90
23395;DHT22;11870;53.084;18.206;2023-04-24T18:00:33;14.10;99.90
23395;DHT22;11870;53.084;18.206;2023-04-24T18:03:03;14.00;99.90
23395;DHT22;11870;53.084;18.206;2023-04-24T18:05:31;14.00;99.90
23395;DHT22;11870;53.084;18.206;2023-04-24T18:10:28;13.90;99.90
23395;DHT22;11870;53.084;18.206;2023-04-24T18:15:23;13.80;99.90
23395;DHT22;11870;53.084;18.206;2023-04-24T18:17:50;13.90;99.90
23395;DHT22;11870;53.084;18.206;2023-04-24T18:20:18;13.80;99.90
23395;DHT22;11870;53.084;18.206;2023-04-24T18:22:50;13.80;99.90
23395;DHT22;11870;53.084;18.206;2023-04-24T18:25:17;13.70;99.90
23395;DHT22;11870;53.084;18.206;2023-04-24T18:27:48;13.80;99.90
23395;DHT22;11870;53.084;18.206;2023-04-24T18:40:08;13.50;99.90
23395;DHT22;11870;53.084;18.206;2023-04-24T18:47:32;13.40;99.90
23395;DHT22;11870;53.084;18.206;2023-04-24T18:50:02;13.30;99.90
23395;DHT22;11870;53.084;18.206;2023-04-24T18:59:48;13.30;99.90
23395;DHT22;11870;53.084;18.206;2023-04-24T19:09:37;13.60;99.90
23395;DHT22;11870;53.084;18.206;2023-04-24T19:14:31;13.70;99.90
23395;DHT22;11870;53.084;18.206;2023-04-24T19:16:58;13.60;99.90
23395;DHT22;11870;53.084;18.206;2023-04-24T19:19:24;13.50;99.90